Time;durP1;ratioP1;P1;durP2;ratioP2;P2;SDS_P1;SDS_P2;PMS_P1;PMS_P2;Temp;Humidity;BMP_temperature;BMP_pressure;BME280_temperature;BME280_humidity;BME280_pressure;Samples;Min_cycle;Max_cycle;Signal;HPM_P1;HPM_P2
2022/12/21 00:01:49;;;;;;;261.65;75.22;;;6.30;99.90;;;;;;4962982;28;20035;-76
2022/12/21 00:04:14;;;;;;;252.63;72.25;;;6.30;99.90;;;;;;4965620;28;20110;-76
2022/12/21 00:06:40;;;;;;;256.45;73.32;;;6.30;99.90;;;;;;4964122;28;20023;-76
2022/12/21 00:09:09;;;;;;;255.43;74.30;;;6.40;99.90;;;;;;4964578;28;20023;-76
2022/12/21 00:11:35;;;;;;;276.02;75.45;;;6.30;99.90;;;;;;4962720;28;20081;-76
2022/12/21 00:14:03;;;;;;;281.95;76.97;;;6.40;99.90;;;;;;4963722;28;20445;-76
2022/12/21 00:16:31;;;;;;;273.23;77.88;;;6.40;99.90;;;;;;4962833;28;20532;-76
2022/12/21 00:18:58;;;;;;;283.27;77.68;;;6.40;99.90;;;;;;4963801;28;20110;-76
2022/12/21 00:21:26;;;;;;;283.05;75.53;;;6.40;99.90;;;;;;4963974;28;20033;-76
2022/12/21 00:23:53;;;;;;;273.95;73.35;;;6.40;99.90;;;;;;4962640;28;20047;-76
2022/12/21 00:26:21;;;;;;;285.00;79.25;;;6.40;99.90;;;;;;4966058;28;20466;-77
2022/12/21 00:28:49;;;;;;;282.33;77.55;;;6.30;99.90;;;;;;4964876;28;20028;-76
2022/12/21 00:31:19;;;;;;;276.77;78.35;;;6.40;99.90;;;;;;4966668;28;20477;-76
2022/12/21 00:33:46;;;;;;;268.40;75.93;;;6.40;99.90;;;;;;4964704;28;20027;-76
2022/12/21 00:36:15;;;;;;;277.50;77.38;;;6.30;99.90;;;;;;4965033;28;20457;-76
2022/12/21 00:38:41;;;;;;;318.20;81.00;;;6.30;99.90;;;;;;4964268;28;20452;-76
2022/12/21 00:41:11;;;;;;;303.40;76.10;;;6.30;99.90;;;;;;4966586;28;20043;-76
2022/12/21 00:43:39;;;;;;;289.60;78.15;;;6.30;99.90;;;;;;4964012;28;20053;-76
2022/12/21 00:46:05;;;;;;;305.17;80.40;;;6.30;99.90;;;;;;4965197;28;20029;-76
2022/12/21 00:48:33;;;;;;;318.30;80.75;;;6.30;99.90;;;;;;4962956;28;20113;-76
2022/12/21 00:51:11;;;;;;;325.88;81.72;;;6.30;99.90;;;;;;4963656;28;20065;-76
2022/12/21 00:53:37;;;;;;;312.67;84.63;;;6.30;99.90;;;;;;4965122;28;20437;-76
2022/12/21 00:56:05;;;;;;;297.00;77.97;;;6.30;99.90;;;;;;4966304;28;20034;-76
2022/12/21 00:58:32;;;;;;;382.17;79.20;;;6.30;99.90;;;;;;4961210;28;20051;-76
2022/12/21 01:01:03;;;;;;;343.65;85.05;;;6.30;99.90;;;;;;4965245;28;20456;-76
2022/12/21 01:03:28;;;;;;;356.05;82.45;;;6.20;99.90;;;;;;4965969;28;20046;-76
2022/12/21 01:05:54;;;;;;;293.70;80.75;;;6.20;99.90;;;;;;4962552;28;20035;-76
2022/12/21 01:08:22;;;;;;;296.83;84.40;;;6.20;99.90;;;;;;4965894;28;20019;-76
2022/12/21 01:10:48;;;;;;;317.50;84.00;;;6.20;99.90;;;;;;4962468;28;20066;-76
2022/12/21 01:13:15;;;;;;;306.85;82.65;;;6.20;99.90;;;;;;4964384;28;20058;-76
2022/12/21 01:15:41;;;;;;;336.55;86.80;;;6.20;99.90;;;;;;4962692;28;20031;-76
2022/12/21 01:18:08;;;;;;;326.73;86.70;;;6.20;99.90;;;;;;4963820;28;20035;-76
2022/12/21 01:20:33;;;;;;;283.25;83.22;;;6.20;99.90;;;;;;4964225;28;20209;-76
2022/12/21 01:22:59;;;;;;;263.42;79.07;;;6.20;99.90;;;;;;4965797;28;20472;-76
2022/12/21 01:25:25;;;;;;;272.38;80.50;;;6.20;99.90;;;;;;4963959;28;20481;-76
2022/12/21 01:27:50;;;;;;;257.02;77.10;;;6.30;99.90;;;;;;4971110;28;20114;-76
2022/12/21 01:30:16;;;;;;;230.63;72.22;;;6.30;99.90;;;;;;4962457;28;20046;-76
2022/12/21 01:32:42;;;;;;;248.98;76.22;;;6.30;99.90;;;;;;4961825;28;20034;-76
2022/12/21 01:35:08;;;;;;;284.13;78.60;;;6.30;99.90;;;;;;4963532;28;20035;-76
2022/12/21 01:37:33;;;;;;;264.92;77.95;;;6.30;99.90;;;;;;4964289;28;20046;-76
2022/12/21 01:39:59;;;;;;;247.23;74.25;;;6.30;99.90;;;;;;4962969;28;20374;-76
2022/12/21 01:42:25;;;;;;;265.45;76.45;;;6.30;99.90;;;;;;4964533;28;20117;-76
2022/12/21 01:45:15;;;;;;;258.15;74.70;;;6.30;99.90;;;;;;4962436;28;20393;-76
2022/12/21 01:47:49;;;;;;;272.45;75.63;;;6.30;99.90;;;;;;4965155;28;20080;-76
2022/12/21 01:50:53;;;;;;;233.77;71.82;;;6.30;99.90;;;;;;4960930;28;20027;-76
2022/12/21 01:53:33;;;;;;;260.75;73.85;;;6.30;99.90;;;;;;4962514;28;20039;-76
2022/12/21 01:56:04;;;;;;;263.58;75.90;;;6.30;99.90;;;;;;4965261;28;20031;-76
2022/12/21 01:58:30;;;;;;;255.13;77.22;;;6.30;99.90;;;;;;4961467;28;20047;-76
2022/12/21 02:00:59;;;;;;;270.45;75.13;;;6.30;99.90;;;;;;4964215;28;20028;-76
2022/12/21 02:03:29;;;;;;;237.95;71.32;;;6.30;99.90;;;;;;4971743;28;20033;-76
2022/12/21 02:06:09;;;;;;;206.90;65.30;;;6.30;99.90;;;;;;4961506;28;20035;-76
2022/12/21 02:08:35;;;;;;;195.93;64.30;;;6.30;99.90;;;;;;4963011;28;20121;-76
2022/12/21 02:11:01;;;;;;;188.32;63.70;;;6.20;99.90;;;;;;4963764;28;20031;-76
2022/12/21 02:13:27;;;;;;;212.70;61.28;;;6.30;99.90;;;;;;4962668;28;20042;-76
2022/12/21 02:15:59;;;;;;;204.60;63.70;;;6.20;99.90;;;;;;4963715;28;20030;-76
2022/12/21 02:18:54;;;;;;;193.38;61.65;;;6.30;99.90;;;;;;4962896;28;20118;-76
2022/12/21 02:21:33;;;;;;;199.10;60.38;;;6.30;99.90;;;;;;4961257;28;20401;-76
2022/12/21 02:24:36;;;;;;;181.75;62.53;;;6.30;99.90;;;;;;4965052;28;20023;-76
2022/12/21 02:27:20;;;;;;;186.98;59.38;;;6.30;99.90;;;;;;4960357;28;20027;-76
2022/12/21 02:30:05;;;;;;;177.90;56.97;;;6.30;99.90;;;;;;4965932;28;20135;-76
2022/12/21 02:32:40;;;;;;;174.57;59.38;;;6.30;99.90;;;;;;4964967;28;20035;-76
2022/12/21 02:35:22;;;;;;;194.73;58.80;;;6.30;99.90;;;;;;4965729;28;20027;-76
2022/12/21 02:38:08;;;;;;;191.02;59.92;;;6.30;99.90;;;;;;4964316;28;20489;-76
2022/12/21 02:40:55;;;;;;;198.65;58.50;;;6.30;99.90;;;;;;4967810;28;20472;-76
2022/12/21 02:44:15;;;;;;;180.52;58.58;;;6.30;99.90;;;;;;4958058;28;20058;-76
2022/12/21 02:47:14;;;;;;;181.77;56.88;;;6.30;99.90;;;;;;4960051;28;20037;-76
2022/12/21 02:50:12;;;;;;;162.13;56.22;;;6.30;99.90;;;;;;4961669;28;20385;-76
2022/12/21 02:53:01;;;;;;;170.15;56.38;;;6.30;99.90;;;;;;4969820;28;20023;-76
2022/12/21 02:55:28;;;;;;;183.63;55.47;;;6.30;99.90;;;;;;4960445;28;20504;-76
2022/12/21 02:58:17;;;;;;;170.25;56.92;;;6.20;99.90;;;;;;4962212;28;20047;-76
2022/12/21 03:00:52;;;;;;;169.23;58.17;;;6.30;99.90;;;;;;4963728;28;20130;-76
2022/12/21 03:03:48;;;;;;;173.05;57.72;;;6.30;99.90;;;;;;4953503;28;20034;-76
2022/12/21 03:06:38;;;;;;;164.43;55.35;;;6.20;99.90;;;;;;4967786;28;20110;-76
2022/12/21 03:09:09;;;;;;;169.55;56.40;;;6.30;99.90;;;;;;4962239;28;20031;-76
2022/12/21 03:11:46;;;;;;;151.95;52.45;;;6.30;99.90;;;;;;4963152;28;20113;-76
2022/12/21 03:14:38;;;;;;;165.13;56.28;;;6.30;99.90;;;;;;4972859;28;20500;-76
2022/12/21 03:17:51;;;;;;;172.25;58.40;;;6.30;99.90;;;;;;4968401;28;20034;-76
2022/12/21 03:20:49;;;;;;;185.80;58.72;;;6.30;99.90;;;;;;4957666;28;20054;-76
2022/12/21 03:23:24;;;;;;;197.13;63.10;;;6.20;99.90;;;;;;4957957;28;20042;-76
2022/12/21 03:26:01;;;;;;;222.45;62.10;;;6.30;99.90;;;;;;4975821;28;20101;-76
2022/12/21 03:28:31;;;;;;;216.90;64.22;;;6.30;99.90;;;;;;4967662;28;20031;-76
2022/12/21 03:31:02;;;;;;;199.77;64.30;;;6.30;99.90;;;;;;4963022;28;20382;-76
2022/12/21 03:33:33;;;;;;;209.20;63.90;;;6.30;99.90;;;;;;4964617;28;20019;-76
2022/12/21 03:36:05;;;;;;;211.68;68.78;;;6.30;99.90;;;;;;4967467;28;20049;-76
2022/12/21 03:38:51;;;;;;;197.18;63.50;;;6.30;99.90;;;;;;4964189;28;20027;-76
2022/12/21 03:41:34;;;;;;;214.93;68.65;;;6.30;99.90;;;;;;4967914;28;20026;-76
2022/12/21 03:44:03;;;;;;;220.88;70.45;;;6.30;99.90;;;;;;4965936;28;20038;-76
2022/12/21 03:46:39;;;;;;;218.45;67.72;;;6.30;99.90;;;;;;4967603;28;20023;-76
2022/12/21 03:49:20;;;;;;;224.88;72.35;;;6.30;99.90;;;;;;4964585;28;20482;-76
2022/12/21 03:51:50;;;;;;;221.40;72.35;;;6.30;99.90;;;;;;4969439;28;20079;-76
2022/12/21 03:54:48;;;;;;;216.68;69.00;;;6.30;99.90;;;;;;4966218;28;20041;-76
2022/12/21 03:57:15;;;;;;;226.48;70.95;;;6.30;99.90;;;;;;4906092;28;20043;-76
2022/12/21 03:59:44;;;;;;;203.15;64.55;;;6.30;99.90;;;;;;4964034;28;20035;-76
2022/12/21 04:02:14;;;;;;;202.75;65.93;;;6.30;99.90;;;;;;4967142;28;20549;-76
2022/12/21 04:05:01;;;;;;;204.98;65.88;;;6.30;99.90;;;;;;4965408;28;20548;-76
2022/12/21 04:07:28;;;;;;;224.55;69.55;;;6.30;99.90;;;;;;4968323;28;20119;-76
2022/12/21 04:09:59;;;;;;;197.60;65.97;;;6.30;99.90;;;;;;4966715;28;20046;-76
2022/12/21 04:12:38;;;;;;;199.13;65.72;;;6.30;99.90;;;;;;4964802;28;20545;-76
2022/12/21 04:15:11;;;;;;;222.70;69.70;;;6.30;99.90;;;;;;4962571;28;20062;-76
2022/12/21 04:17:39;;;;;;;204.13;66.00;;;6.30;99.90;;;;;;4966390;28;20050;-76
2022/12/21 04:20:07;;;;;;;209.05;66.90;;;6.30;99.90;;;;;;4962528;28;20489;-76
2022/12/21 04:28:22;;;;;;;194.55;67.25;;;6.30;99.90;;;;;;4969557;28;20765;-76
2022/12/21 04:30:49;;;;;;;213.75;64.97;;;6.30;99.90;;;;;;4963214;28;20497;-76
2022/12/21 04:33:17;;;;;;;208.55;66.45;;;6.30;99.90;;;;;;4965708;28;20545;-76
2022/12/21 04:38:29;;;;;;;195.30;64.18;;;6.30;99.90;;;;;;4963569;28;20037;-76
2022/12/21 04:40:56;;;;;;;215.02;67.78;;;6.30;99.90;;;;;;4963901;28;20031;-76
2022/12/21 04:43:23;;;;;;;189.43;63.05;;;6.30;99.90;;;;;;4966779;28;20077;-76
2022/12/21 04:45:49;;;;;;;208.60;66.45;;;6.30;99.90;;;;;;4965729;28;20408;-76
2022/12/21 04:48:17;;;;;;;181.93;62.97;;;6.30;99.90;;;;;;4962155;28;20023;-76
2022/12/21 04:50:43;;;;;;;199.55;63.70;;;6.30;99.90;;;;;;4965871;28;20392;-76
2022/12/21 04:53:09;;;;;;;193.15;62.95;;;6.30;99.90;;;;;;4970049;28;20114;-76
2022/12/21 04:55:35;;;;;;;183.07;64.53;;;6.30;99.90;;;;;;4965090;28;20031;-76
2022/12/21 04:58:00;;;;;;;175.05;63.70;;;6.30;99.90;;;;;;4966403;28;20042;-76
2022/12/21 05:00:26;;;;;;;211.55;64.53;;;6.30;99.90;;;;;;4962798;28;20028;-76
2022/12/21 05:02:52;;;;;;;186.60;65.30;;;6.30;99.90;;;;;;4962424;28;20046;-76
2022/12/21 05:05:17;;;;;;;216.80;68.05;;;6.30;99.90;;;;;;4972727;28;20057;-76
2022/12/21 05:07:43;;;;;;;203.07;67.55;;;6.20;99.90;;;;;;4963244;28;20457;-76
2022/12/21 05:10:09;;;;;;;190.57;64.90;;;6.20;99.90;;;;;;4965200;28;20031;-77
2022/12/21 05:12:35;;;;;;;173.70;63.88;;;6.30;99.90;;;;;;4962338;28;20062;-76
2022/12/21 05:15:01;;;;;;;181.55;63.25;;;6.30;99.90;;;;;;4964739;28;20401;-76
2022/12/21 05:17:27;;;;;;;184.15;65.18;;;6.30;99.90;;;;;;4962167;28;20019;-76
2022/12/21 05:19:52;;;;;;;189.98;63.90;;;6.30;99.90;;;;;;4964091;28;20031;-76
2022/12/21 05:22:18;;;;;;;184.95;64.00;;;6.30;99.90;;;;;;4964367;28;20030;-76
2022/12/21 05:24:44;;;;;;;184.15;66.57;;;6.30;99.90;;;;;;4962283;28;20486;-76
2022/12/21 05:27:11;;;;;;;193.35;65.47;;;6.30;99.90;;;;;;4965509;28;20049;-76
2022/12/21 05:29:36;;;;;;;186.48;65.95;;;6.30;99.90;;;;;;4960890;28;20038;-76
2022/12/21 05:32:02;;;;;;;206.80;67.60;;;6.40;99.90;;;;;;4964684;28;20019;-76
2022/12/21 05:34:28;;;;;;;195.60;66.72;;;6.30;99.90;;;;;;4964939;28;20036;-76
2022/12/21 05:36:53;;;;;;;214.32;65.97;;;6.40;99.90;;;;;;4966792;28;20022;-76
2022/12/21 05:39:19;;;;;;;184.48;66.03;;;6.30;99.90;;;;;;4962026;28;20031;-76
2022/12/21 05:41:45;;;;;;;201.27;66.40;;;6.30;99.90;;;;;;4971497;28;20074;-76
2022/12/21 05:44:11;;;;;;;214.07;68.78;;;6.30;99.90;;;;;;4970799;28;20027;-76
2022/12/21 05:46:36;;;;;;;207.65;67.22;;;6.30;99.90;;;;;;4971719;28;20117;-76
2022/12/21 05:49:02;;;;;;;186.10;62.70;;;6.30;99.90;;;;;;4971815;28;20602;-76
2022/12/21 05:51:31;;;;;;;177.75;62.17;;;6.30;99.90;;;;;;4971934;28;20381;-76
2022/12/21 05:53:57;;;;;;;171.07;61.22;;;6.20;99.90;;;;;;4971802;28;20343;-76
2022/12/21 05:56:23;;;;;;;186.98;63.38;;;6.20;99.90;;;;;;4966406;28;20227;-76
2022/12/21 05:58:49;;;;;;;170.20;60.65;;;6.30;99.90;;;;;;4971061;28;20047;-76
2022/12/21 06:01:15;;;;;;;182.00;61.47;;;6.30;99.90;;;;;;4971446;28;20054;-76
2022/12/21 06:03:41;;;;;;;170.05;60.55;;;6.30;99.90;;;;;;4970531;28;20050;-76
2022/12/21 06:06:10;;;;;;;161.70;57.65;;;6.30;99.90;;;;;;4968490;28;20026;-76
2022/12/21 06:08:36;;;;;;;177.27;60.85;;;6.30;99.90;;;;;;4964589;28;20544;-76
2022/12/21 06:11:07;;;;;;;161.65;56.10;;;6.40;99.90;;;;;;4959875;28;20027;-76
2022/12/21 06:13:33;;;;;;;158.70;53.93;;;6.30;99.90;;;;;;4964758;28;20073;-76
2022/12/21 06:16:04;;;;;;;160.15;53.05;;;6.30;99.90;;;;;;4962596;28;20031;-76
2022/12/21 06:18:30;;;;;;;123.55;46.85;;;6.30;99.90;;;;;;4962973;28;20035;-76
2022/12/21 06:20:55;;;;;;;122.97;44.97;;;6.30;99.90;;;;;;4966458;28;20397;-76
2022/12/21 06:23:21;;;;;;;128.60;45.08;;;6.20;99.90;;;;;;4966318;28;20014;-76
2022/12/21 06:25:47;;;;;;;123.95;43.72;;;6.30;99.90;;;;;;4966246;28;20061;-76
2022/12/21 06:28:12;;;;;;;128.73;47.63;;;6.30;99.90;;;;;;4962932;28;20481;-76
2022/12/21 06:30:38;;;;;;;136.32;46.80;;;6.20;99.90;;;;;;4960907;28;20421;-76
2022/12/21 06:33:04;;;;;;;140.05;47.20;;;6.20;99.90;;;;;;4962372;28;20023;-76
2022/12/21 06:35:31;;;;;;;134.80;50.22;;;6.20;99.90;;;;;;4962433;28;20076;-76
2022/12/21 06:37:57;;;;;;;160.88;51.58;;;6.30;99.90;;;;;;4961835;28;20544;-76
2022/12/21 06:40:23;;;;;;;167.00;55.40;;;6.20;99.90;;;;;;4962234;28;20436;-76
2022/12/21 06:42:48;;;;;;;164.15;54.58;;;6.20;99.90;;;;;;4959373;28;20019;-76
2022/12/21 06:45:14;;;;;;;171.27;57.30;;;6.20;99.90;;;;;;4966379;28;20032;-76
2022/12/21 06:47:40;;;;;;;165.15;59.78;;;6.20;99.90;;;;;;4962457;28;20015;-76
2022/12/21 06:50:06;;;;;;;180.80;66.03;;;6.30;99.90;;;;;;4959072;28;20384;-76
2022/12/21 06:52:33;;;;;;;193.98;67.15;;;6.30;99.90;;;;;;4959223;28;20038;-76
2022/12/21 06:54:58;;;;;;;185.00;64.85;;;6.30;99.90;;;;;;4964070;28;20033;-76
2022/12/21 06:57:24;;;;;;;189.80;64.00;;;6.30;99.90;;;;;;4972079;28;20050;-76
2022/12/21 06:59:50;;;;;;;185.13;65.32;;;6.30;99.90;;;;;;4972358;28;20027;-76
2022/12/21 07:02:15;;;;;;;184.13;62.40;;;6.30;99.90;;;;;;4973752;28;20035;-76
2022/12/21 07:04:41;;;;;;;181.68;64.80;;;6.30;99.90;;;;;;4954390;28;20036;-76
2022/12/21 07:07:07;;;;;;;172.15;61.25;;;6.30;99.90;;;;;;4964429;28;20058;-76
2022/12/21 07:09:32;;;;;;;199.50;65.63;;;6.30;99.90;;;;;;4973879;28;20027;-76
2022/12/21 07:11:58;;;;;;;176.07;61.83;;;6.30;99.90;;;;;;4973656;28;20086;-76
2022/12/21 07:14:24;;;;;;;190.25;61.40;;;6.30;99.90;;;;;;4962985;28;20027;-76
2022/12/21 07:16:50;;;;;;;165.25;59.35;;;6.30;99.90;;;;;;4954256;29;20027;-76
2022/12/21 07:19:15;;;;;;;166.20;60.28;;;6.30;99.90;;;;;;4969220;28;20031;-76
2022/12/21 07:21:41;;;;;;;154.50;56.67;;;6.30;99.90;;;;;;4959045;28;20473;-76
2022/12/21 07:24:07;;;;;;;172.90;57.20;;;6.30;99.90;;;;;;4973615;28;20385;-76
2022/12/21 07:26:33;;;;;;;160.57;55.45;;;6.30;99.90;;;;;;4973422;28;20023;-76
2022/12/21 07:28:58;;;;;;;171.00;57.70;;;6.30;99.90;;;;;;4973432;28;20393;-76
2022/12/21 07:31:27;;;;;;;151.77;54.63;;;6.30;99.90;;;;;;4971720;28;20045;-76
2022/12/21 07:33:53;;;;;;;167.85;59.83;;;6.30;99.90;;;;;;4973620;28;20022;-76
2022/12/21 07:36:19;;;;;;;166.05;56.83;;;6.30;99.90;;;;;;4973485;28;20034;-76
2022/12/21 07:38:45;;;;;;;170.05;56.22;;;6.30;99.90;;;;;;4973457;28;20039;-76
2022/12/21 07:41:15;;;;;;;169.98;60.65;;;6.30;99.90;;;;;;4973462;28;20030;-76
2022/12/21 07:43:41;;;;;;;171.35;61.83;;;6.30;99.90;;;;;;4952838;29;20024;-76
2022/12/21 07:46:08;;;;;;;172.82;61.25;;;6.30;99.90;;;;;;4957395;28;20023;-76
2022/12/21 07:48:34;;;;;;;183.20;63.60;;;6.30;99.90;;;;;;4961602;28;20057;-76
2022/12/21 07:51:01;;;;;;;174.20;61.88;;;6.30;99.90;;;;;;4974594;28;20030;-76
2022/12/21 07:53:26;;;;;;;185.02;63.00;;;6.30;99.90;;;;;;4972219;28;20557;-76
2022/12/21 07:55:57;;;;;;;180.77;65.38;;;6.30;99.90;;;;;;4961600;28;20110;-76
2022/12/21 07:58:23;;;;;;;186.57;62.65;;;6.30;99.90;;;;;;4971711;28;20070;-79
2022/12/21 08:00:49;;;;;;;162.45;62.47;;;6.30;99.90;;;;;;4973185;28;20073;-79
2022/12/21 08:03:14;;;;;;;178.02;64.28;;;6.30;99.90;;;;;;4967481;28;20151;-78
2022/12/21 08:05:40;;;;;;;172.40;62.53;;;6.30;99.90;;;;;;4964756;28;20104;-79
2022/12/21 08:08:06;;;;;;;178.30;63.13;;;6.30;99.90;;;;;;4962584;28;20437;-79
2022/12/21 08:10:32;;;;;;;178.98;63.28;;;6.40;99.90;;;;;;4964667;28;20024;-78
2022/12/21 08:12:58;;;;;;;173.15;63.80;;;6.40;99.90;;;;;;4966065;28;20082;-78
2022/12/21 08:15:24;;;;;;;162.13;61.70;;;6.40;99.90;;;;;;4964233;28;20034;-79
2022/12/21 08:17:53;;;;;;;167.25;60.88;;;6.30;99.90;;;;;;4963292;28;20081;-78
2022/12/21 08:20:20;;;;;;;170.40;60.28;;;6.30;99.90;;;;;;4969487;28;20035;-79
2022/12/21 08:22:46;;;;;;;161.77;59.97;;;6.40;99.90;;;;;;4962317;28;20035;-79
2022/12/21 08:25:12;;;;;;;160.93;61.20;;;6.40;99.90;;;;;;4962355;28;20085;-78
2022/12/21 08:27:37;;;;;;;159.57;56.30;;;6.50;99.90;;;;;;4966521;28;20039;-79
2022/12/21 08:30:04;;;;;;;145.55;55.22;;;6.50;99.90;;;;;;4965810;28;20121;-79
2022/12/21 08:32:30;;;;;;;167.27;60.05;;;6.50;99.90;;;;;;4976091;28;20118;-79
2022/12/21 08:34:56;;;;;;;154.55;58.45;;;6.50;99.90;;;;;;4976119;28;20057;-79
2022/12/21 08:37:22;;;;;;;165.95;61.30;;;6.50;99.90;;;;;;4975896;28;20477;-79
2022/12/21 08:39:48;;;;;;;168.82;61.63;;;6.40;99.90;;;;;;4975506;28;20023;-79
2022/12/21 08:42:14;;;;;;;171.90;61.00;;;6.40;99.90;;;;;;4955290;29;20042;-79
2022/12/21 08:44:39;;;;;;;164.60;61.65;;;6.40;99.90;;;;;;4955368;29;20038;-79
2022/12/21 08:47:06;;;;;;;171.82;62.38;;;6.40;99.90;;;;;;4955148;29;20031;-79
2022/12/21 08:49:32;;;;;;;168.82;63.53;;;6.40;99.90;;;;;;4971857;28;20105;-79
2022/12/21 08:51:58;;;;;;;167.88;61.20;;;6.50;99.90;;;;;;4974414;28;20476;-79
2022/12/21 08:54:25;;;;;;;168.00;61.60;;;6.50;99.90;;;;;;4963492;28;20102;-79
2022/12/21 08:56:50;;;;;;;167.45;62.28;;;6.50;99.90;;;;;;4959860;28;20039;-82
2022/12/21 08:59:16;;;;;;;160.95;63.97;;;6.50;99.90;;;;;;4970319;28;20465;-82
2022/12/21 09:01:42;;;;;;;173.93;64.20;;;6.50;99.90;;;;;;4960949;28;20118;-79
2022/12/21 09:04:08;;;;;;;169.82;64.75;;;6.50;99.90;;;;;;4974393;28;20568;-80
2022/12/21 09:06:33;;;;;;;165.80;62.78;;;6.50;99.90;;;;;;4974252;28;20550;-80
2022/12/21 09:08:59;;;;;;;175.57;66.25;;;6.50;99.90;;;;;;4956736;28;20639;-80
2022/12/21 09:11:27;;;;;;;155.60;65.00;;;6.50;99.90;;;;;;4956106;29;20027;-80
2022/12/21 09:13:53;;;;;;;159.65;66.63;;;6.50;99.90;;;;;;4956112;29;20035;-80
2022/12/21 09:16:21;;;;;;;146.32;63.22;;;6.50;99.90;;;;;;4955953;29;20038;-81
2022/12/21 09:18:47;;;;;;;168.90;66.07;;;6.50;99.90;;;;;;4963311;28;20110;-80
2022/12/21 09:21:15;;;;;;;159.45;64.65;;;6.50;99.90;;;;;;4963923;28;20058;-79
2022/12/21 09:23:41;;;;;;;173.25;68.32;;;6.40;99.90;;;;;;4962734;28;20023;-80
2022/12/21 09:26:07;;;;;;;154.73;62.92;;;6.40;99.90;;;;;;4962906;28;20026;-80
2022/12/21 09:28:34;;;;;;;151.57;63.10;;;6.40;99.90;;;;;;4961245;28;20509;-79
2022/12/21 09:31:08;;;;;;;153.05;64.70;;;6.50;99.90;;;;;;4967986;28;20026;-80
2022/12/21 09:33:34;;;;;;;160.55;62.20;;;6.50;99.90;;;;;;4962116;28;20420;-80
2022/12/21 09:35:59;;;;;;;158.27;61.85;;;6.50;99.90;;;;;;4963453;28;20070;-80
2022/12/21 09:38:25;;;;;;;159.27;61.58;;;6.60;99.90;;;;;;4965527;28;20050;-80
2022/12/21 09:40:51;;;;;;;162.52;66.93;;;6.60;99.90;;;;;;4964646;28;20073;-80
2022/12/21 09:43:39;;;;;;;165.05;63.72;;;6.60;99.90;;;;;;4961381;28;20500;-79
2022/12/21 09:46:08;;;;;;;147.45;60.63;;;6.60;99.90;;;;;;4962023;28;20032;-79
2022/12/21 09:48:48;;;;;;;157.65;62.35;;;6.60;99.90;;;;;;4961561;28;20046;-80
2022/12/21 09:51:21;;;;;;;154.80;60.83;;;6.60;99.90;;;;;;4968013;28;20406;-80
2022/12/21 09:53:56;;;;;;;144.93;62.80;;;6.70;99.90;;;;;;4963331;28;20596;-80
2022/12/21 09:56:24;;;;;;;139.35;59.20;;;6.70;99.90;;;;;;4964221;28;20035;-80
2022/12/21 09:58:51;;;;;;;149.88;60.58;;;6.70;99.90;;;;;;4964669;28;20501;-80
2022/12/21 10:01:26;;;;;;;141.98;60.00;;;6.70;99.90;;;;;;4961159;28;20058;-79
2022/12/21 10:04:30;;;;;;;156.15;62.65;;;6.70;99.90;;;;;;4961892;28;20042;-80
2022/12/21 10:07:17;;;;;;;143.93;59.88;;;6.70;99.90;;;;;;4871189;29;20423;-80
2022/12/21 10:10:14;;;;;;;156.63;62.63;;;6.60;99.90;;;;;;4962575;28;20162;-79
2022/12/21 10:13:01;;;;;;;154.52;61.33;;;6.60;99.90;;;;;;4961091;28;20027;-79
2022/12/21 10:15:37;;;;;;;150.07;59.92;;;6.60;99.90;;;;;;4962366;28;20106;-80
2022/12/21 10:18:28;;;;;;;162.60;72.97;;;6.60;99.90;;;;;;4959981;28;20064;-80
2022/12/21 10:21:09;;;;;;;161.50;68.27;;;6.60;99.90;;;;;;4964327;28;20042;-80
2022/12/21 10:23:47;;;;;;;161.75;64.15;;;6.70;99.90;;;;;;4961934;28;20019;-80
2022/12/21 10:26:17;;;;;;;156.30;63.88;;;6.60;99.90;;;;;;4962154;28;20035;-80
2022/12/21 10:29:09;;;;;;;163.95;66.82;;;6.60;99.90;;;;;;4969332;28;20492;-79
2022/12/21 10:31:44;;;;;;;151.73;63.78;;;6.60;99.90;;;;;;4960933;28;20027;-80
2022/12/21 10:34:36;;;;;;;160.98;65.85;;;6.70;99.90;;;;;;4963925;28;20038;-80
2022/12/21 10:37:12;;;;;;;160.07;66.67;;;6.70;99.90;;;;;;4961876;28;20052;-80
2022/12/21 10:39:38;;;;;;;174.82;66.47;;;6.70;99.90;;;;;;4968224;28;20508;-78
2022/12/21 10:42:29;;;;;;;159.63;65.90;;;6.70;99.90;;;;;;4962723;28;20031;-79
2022/12/21 10:44:55;;;;;;;160.07;65.68;;;6.70;99.90;;;;;;4963189;28;20023;-80
2022/12/21 10:47:24;;;;;;;165.70;66.10;;;6.70;99.90;;;;;;4961330;28;20094;-79
2022/12/21 10:50:14;;;;;;;174.50;67.93;;;6.70;99.90;;;;;;4961658;28;20034;-80
2022/12/21 10:52:41;;;;;;;157.20;65.07;;;6.70;99.90;;;;;;4962107;28;20110;-80
2022/12/21 10:55:32;;;;;;;166.15;65.80;;;6.70;99.90;;;;;;4962314;28;20031;-80
2022/12/21 10:58:01;;;;;;;151.80;63.75;;;6.80;99.90;;;;;;4946548;28;20395;-80
2022/12/21 11:00:29;;;;;;;159.05;66.70;;;6.70;99.90;;;;;;4964370;28;20035;-79
2022/12/21 11:03:00;;;;;;;164.55;65.47;;;6.80;99.90;;;;;;4959849;28;20122;-79
2022/12/21 11:05:31;;;;;;;156.80;64.38;;;6.80;99.90;;;;;;4963577;28;20045;-79
2022/12/21 11:08:20;;;;;;;139.27;62.00;;;6.80;99.90;;;;;;4962123;28;20024;-79
2022/12/21 11:10:48;;;;;;;137.75;58.75;;;6.80;99.90;;;;;;4952309;28;20040;-79
2022/12/21 11:13:15;;;;;;;130.90;60.47;;;6.80;99.90;;;;;;4963775;28;20023;-79
2022/12/21 11:16:09;;;;;;;134.50;60.40;;;6.90;99.90;;;;;;4968195;28;20044;-80
2022/12/21 11:18:42;;;;;;;136.10;59.33;;;6.90;99.90;;;;;;4959501;28;20031;-79
2022/12/21 11:21:32;;;;;;;133.77;58.97;;;6.90;99.90;;;;;;4962132;28;20050;-79
2022/12/21 11:24:30;;;;;;;132.38;56.97;;;6.90;99.90;;;;;;4964114;28;20037;-79
2022/12/21 11:27:01;;;;;;;130.55;57.00;;;6.90;99.90;;;;;;4963877;28;20117;-79
2022/12/21 11:29:32;;;;;;;124.30;57.60;;;6.90;99.90;;;;;;4966340;28;20363;-80
2022/12/21 11:32:09;;;;;;;122.32;61.05;;;6.90;99.90;;;;;;4972104;28;20406;-79
2022/12/21 11:34:42;;;;;;;134.02;58.58;;;6.90;99.90;;;;;;4970803;28;20109;-80
2022/12/21 11:37:27;;;;;;;131.95;63.63;;;6.80;99.90;;;;;;4963764;28;20050;-79
2022/12/21 11:39:56;;;;;;;129.93;66.03;;;6.80;99.90;;;;;;4965516;28;20054;-80
2022/12/21 11:42:24;;;;;;;140.85;63.63;;;6.90;99.90;;;;;;4966266;28;20085;-80
2022/12/21 11:45:25;;;;;;;132.00;62.17;;;6.90;99.90;;;;;;4968053;28;20073;-79
2022/12/21 11:48:00;;;;;;;131.23;60.05;;;6.90;99.90;;;;;;4967227;28;20504;-79
2022/12/21 11:50:59;;;;;;;129.90;61.83;;;7.00;99.90;;;;;;4965707;28;20034;-79
2022/12/21 11:53:47;;;;;;;127.93;61.53;;;7.00;99.90;;;;;;4967317;28;20027;-80
2022/12/21 11:56:21;;;;;;;139.38;64.80;;;7.00;99.90;;;;;;4965192;28;20102;-79
2022/12/21 11:58:56;;;;;;;132.80;61.53;;;7.00;99.90;;;;;;4966796;28;20055;-81
2022/12/21 12:01:40;;;;;;;176.77;88.43;;;7.00;99.90;;;;;;4972757;28;20215;-79
2022/12/21 12:04:20;;;;;;;150.73;69.75;;;7.10;99.90;;;;;;4976620;28;20482;-79
2022/12/21 12:07:07;;;;;;;138.35;64.32;;;7.10;99.90;;;;;;4957284;29;20023;-79
2022/12/21 12:09:41;;;;;;;142.88;61.33;;;7.00;99.90;;;;;;4971597;28;20034;-80
2022/12/21 12:12:45;;;;;;;125.35;60.33;;;7.00;99.90;;;;;;4961262;28;20050;-79
2022/12/21 12:15:17;;;;;;;134.35;64.65;;;7.00;99.90;;;;;;4879347;29;20086;-79
2022/12/21 12:18:12;;;;;;;134.15;65.13;;;7.00;99.90;;;;;;4875837;29;20101;-79
2022/12/21 12:21:04;;;;;;;130.27;62.60;;;7.00;99.90;;;;;;4947306;28;20035;-79
2022/12/21 12:24:08;;;;;;;131.40;61.72;;;7.00;99.90;;;;;;4962379;28;20046;-79
2022/12/21 12:27:04;;;;;;;148.43;64.50;;;7.00;99.90;;;;;;4975858;28;20023;-79
2022/12/21 12:29:45;;;;;;;149.90;62.83;;;7.10;99.90;;;;;;4974826;28;20038;-79
2022/12/21 12:32:33;;;;;;;144.93;64.30;;;7.00;99.90;;;;;;4968438;28;20104;-79
2022/12/21 12:35:09;;;;;;;137.07;61.28;;;7.00;99.90;;;;;;4935781;28;20035;-79
2022/12/21 12:37:43;;;;;;;137.25;61.88;;;7.10;99.90;;;;;;4955252;28;20028;-79
2022/12/21 12:40:42;;;;;;;132.30;61.45;;;7.10;99.90;;;;;;4964252;28;20038;-79
2022/12/21 12:43:33;;;;;;;134.07;60.55;;;7.10;99.90;;;;;;4955264;29;20063;-79
2022/12/21 12:46:21;;;;;;;139.32;61.92;;;7.00;99.90;;;;;;4956655;28;20028;-79
2022/12/21 12:49:24;;;;;;;130.27;59.92;;;7.10;99.90;;;;;;4955264;29;20078;-79
2022/12/21 12:52:24;;;;;;;130.60;60.88;;;7.10;99.90;;;;;;4973565;28;20114;-79
2022/12/21 12:55:12;;;;;;;133.00;61.67;;;7.10;99.90;;;;;;4975813;28;20113;-79
2022/12/21 12:58:03;;;;;;;131.27;58.72;;;7.10;99.90;;;;;;4956211;29;20058;-80
2022/12/21 13:00:58;;;;;;;132.43;62.22;;;7.10;99.90;;;;;;4961272;28;20031;-80
2022/12/21 13:03:38;;;;;;;138.75;61.67;;;7.10;99.90;;;;;;4925879;29;20043;-79
2022/12/21 13:06:10;;;;;;;130.07;59.88;;;7.10;99.90;;;;;;4956173;29;20027;-79